首页
METAR-TAF:

METAR-TAF

机场 :

深圳宝安国际机场

深圳, 中华人民共和国

纬度: 22-33N, 经度: 114-06E, 海拔: 18米

当前天气观测

该预报发布于1小时和1分钟前的01:00 UTC
风速6节,风向,在南转南东西南之间变化
温度 31°C
湿度 75%
气压 1009 hPa
能见度10公里或以上
少量云层高于1600英尺

METAR: ZGSZ 260100Z 19003MPS 160V220 9999 FEW016 31/26 Q1009 NOSIG

时间: 10:01 (02:01 UTC)

预报

该预报发布于16分钟前的01:45 UTC
预报有效从26日的 00点(UTC)到 26日的 24点(UTC)
风速10节,风向
能見度: 8000
少量云层高于2000英尺
短暂存在
从 26日的 03点(UTC)到 26日的 07点(UTC)
风速14节,风向西转西南
能見度: 2500
散云层高于1000英尺
少量云层高于2000英尺, 积雨云.
多云层高于3000英尺
雷暴, 雨

TAF: ZGSZ 260145Z 2600/2624 18005MPS 8000 FEW020 TX33/2606Z TN28/2621Z TEMPO 2603/2607 25007MPS 2500 TSRA SCT010 FEW020CB BKN030

超过4000个机场的气象观测和天气预报(METAR&TAF报告)。

可查询的气象台以黄色和红色小点在地图上表示。

将鼠标移到小点上方,可查看气象台名称。

然后点击查看天气观测和预报。

如需切换地图:点击带黑十字的绿色按钮放大地图;点击带横线的绿色按钮缩小地图;或者点击绿色箭头查看邻近地区的地图。


METAR-TAF: